Time;durP1;ratioP1;P1;durP2;ratioP2;P2;SDS_P1;SDS_P2;PMS_P1;PMS_P2;Temp;Humidity;BMP_temperature;BMP_pressure;BME280_temperature;BME280_humidity;BME280_pressure;Samples;Min_cycle;Max_cycle;Signal;HPM_P1;HPM_P2
2022/04/01 00:03:10;;;;;;;3.47;1.40;;;;;;;4.69;44.32;99351.72;10257756;28;20234;-71
2022/04/01 00:08:15;;;;;;;4.83;1.60;;;;;;;4.49;45.17;99356.03;10255091;29;20200;-65
2022/04/01 00:13:18;;;;;;;4.33;1.50;;;;;;;4.51;45.24;99350.06;10254039;28;20242;-65
2022/04/01 00:18:23;;;;;;;3.80;1.17;;;;;;;4.67;45.45;99343.16;10254241;28;20218;-70
2022/04/01 00:23:26;;;;;;;3.50;1.10;;;;;;;4.67;45.67;99343.16;10253951;28;20626;-69
2022/04/01 00:28:30;;;;;;;3.40;1.13;;;;;;;4.56;45.59;99329.47;10253795;28;20270;-67
2022/04/01 00:33:34;;;;;;;3.33;1.27;;;;;;;4.52;45.88;99323.50;10253733;29;20230;-68
2022/04/01 00:38:37;;;;;;;4.33;1.30;;;;;;;4.58;45.80;99328.63;10255571;28;20196;-69
2022/04/01 00:43:41;;;;;;;4.53;1.63;;;;;;;4.55;45.56;99325.22;10253728;28;20228;-72
2022/04/01 00:48:45;;;;;;;5.73;1.37;;;;;;;4.63;45.78;99323.47;10254878;29;20630;-69
2022/04/01 00:53:49;;;;;;;4.63;1.30;;;;;;;4.63;45.33;99324.31;10261050;28;20219;-69
2022/04/01 00:58:52;;;;;;;4.53;1.30;;;;;;;4.62;45.39;99325.16;10269173;28;20214;-71
2022/04/01 01:03:57;;;;;;;2.87;1.23;;;;;;;4.58;45.39;99320.91;10269830;28;20573;-71
2022/04/01 01:09:00;;;;;;;4.90;1.20;;;;;;;4.54;45.68;99311.50;10270592;28;20234;-69
2022/04/01 01:14:04;;;;;;;6.20;1.30;;;;;;;4.63;45.25;99316.63;10270324;29;20242;-69
2022/04/01 01:19:12;;;;;;;3.33;1.17;;;;;;;4.59;45.25;99304.63;10269140;28;20286;-69
2022/04/01 01:24:17;;;;;;;4.03;1.33;;;;;;;4.52;45.27;99294.41;10269029;28;20554;-72
2022/04/01 01:29:26;;;;;;;3.57;1.37;;;;;;;4.46;45.76;99294.41;10269231;28;20251;-68
2022/04/01 01:34:32;;;;;;;3.50;1.30;;;;;;;4.42;45.92;99291.00;10269623;28;20228;-71
2022/04/01 01:39:35;;;;;;;4.17;1.20;;;;;;;4.50;45.99;99288.41;10271595;29;20275;-68
2022/04/01 01:44:40;;;;;;;3.30;1.17;;;;;;;4.45;45.67;99290.13;10270958;28;20203;-69
2022/04/01 01:54:42;;;;;;;4.00;1.20;;;;;;;4.41;46.14;99289.28;10268550;29;20223;-71
2022/04/01 01:55:07;;;;;;;4.07;1.07;;;;;;;4.34;46.14;99287.59;10268801;28;20308;-72
2022/04/01 02:00:16;;;;;;;2.97;1.03;;;;;;;4.18;47.75;99282.47;10268533;29;20211;-71
2022/04/01 02:05:20;;;;;;;5.70;1.30;;;;;;;4.19;48.04;99282.50;10265416;28;20271;-70
2022/04/01 02:10:23;;;;;;;4.63;1.40;;;;;;;4.21;47.80;99275.63;10264000;28;20196;-71
2022/04/01 02:15:28;;;;;;;3.00;1.20;;;;;;;4.14;48.24;99276.50;10263126;29;20289;-71
2022/04/01 02:20:33;;;;;;;4.50;1.20;;;;;;;4.07;48.78;99264.53;10261762;29;20275;-71
2022/04/01 02:25:36;;;;;;;5.00;1.33;;;;;;;4.13;49.06;99255.97;10261574;29;20210;-68
2022/04/01 02:30:44;;;;;;;4.30;1.23;;;;;;;3.99;49.33;99257.69;10261479;29;20527;-72
2022/04/01 02:35:47;;;;;;;9.00;1.43;;;;;;;4.05;49.89;99253.44;10261449;29;20650;-69
2022/04/01 02:40:51;;;;;;;4.17;1.40;;;;;;;3.90;50.61;99250.88;10261683;29;20200;-71
2022/04/01 02:45:55;;;;;;;6.10;1.47;;;;;;;3.89;51.24;99241.47;10260997;29;20686;-67
2022/04/01 02:50:59;;;;;;;3.73;1.30;;;;;;;3.89;51.39;99246.63;10261191;29;20200;-69
2022/04/01 02:56:02;;;;;;;4.50;1.27;;;;;;;3.80;51.67;99246.63;10260688;29;20240;-70
2022/04/01 03:01:07;;;;;;;3.33;1.27;;;;;;;3.85;52.12;99234.63;10260368;29;20666;-69
2022/04/01 03:06:10;;;;;;;12.77;1.23;;;;;;;3.76;52.61;99229.53;10260301;29;20228;-70
2022/04/01 03:11:13;;;;;;;2.63;1.10;;;;;;;3.79;52.32;99237.22;10260151;29;20200;-66
2022/04/01 03:16:18;;;;;;;7.53;1.50;;;;;;;3.75;53.97;99237.22;10261115;28;20228;-71
2022/04/01 03:21:21;;;;;;;5.43;1.30;;;;;;;3.63;54.31;99235.53;10259096;28;20231;-70
2022/04/01 03:26:24;;;;;;;3.60;1.10;;;;;;;3.45;55.35;99230.41;10259300;28;20673;-70
2022/04/01 03:31:29;;;;;;;5.90;2.23;;;;;;;3.41;56.71;99236.38;10258803;29;20220;-66
2022/04/01 03:36:33;;;;;;;6.77;1.43;;;;;;;3.41;56.21;99215.88;10258741;29;20238;-70
2022/04/01 03:41:38;;;;;;;4.20;1.73;;;;;;;3.48;56.59;99228.69;10258596;29;20220;-71
2022/04/01 03:46:47;;;;;;;6.37;1.37;;;;;;;3.31;56.71;99217.56;10259842;29;20224;-70
2022/04/01 03:51:52;;;;;;;5.10;1.40;;;;;;;3.32;56.89;99228.69;10258369;29;20223;-69
2022/04/01 03:57:00;;;;;;;4.20;1.33;;;;;;;3.35;56.19;99220.97;10255863;29;20558;-69
2022/04/01 04:02:08;;;;;;;6.60;1.40;;;;;;;3.42;55.68;99222.69;10254554;28;20219;-69
2022/04/01 04:07:12;;;;;;;44.90;18.17;;;;;;;3.27;56.40;99230.38;10256116;29;20637;-70
2022/04/01 04:12:15;;;;;;;4.63;1.60;;;;;;;3.06;57.56;99220.97;10256778;28;20228;-70
2022/04/01 04:17:31;;;;;;;6.33;1.70;;;;;;;3.11;58.11;99237.22;10257672;28;20224;-70
2022/04/01 04:22:47;;;;;;;5.97;1.33;;;;;;;3.01;58.50;99238.06;10255085;29;20688;-69
2022/04/01 04:27:57;;;;;;;11.47;1.70;;;;;;;2.96;58.67;99232.06;10253001;28;20215;-71
2022/04/01 04:33:06;;;;;;;6.10;1.23;;;;;;;3.08;58.79;99231.22;10256057;29;20251;-69
2022/04/01 04:38:13;;;;;;;22.67;4.70;;;;;;;3.13;58.50;99232.09;10254121;29;20295;-70
2022/04/01 04:43:21;;;;;;;6.83;2.17;;;;;;;3.12;58.32;99230.38;9912513;28;10000631;-72
2022/04/01 04:48:28;;;;;;;6.10;1.87;;;;;;;3.16;59.34;99230.38;10251527;29;20542;-71
2022/04/01 04:53:33;;;;;;;5.27;1.57;;;;;;;3.18;59.72;99238.06;10252807;28;20573;-70
2022/04/01 04:58:43;;;;;;;4.20;1.60;;;;;;;2.91;61.61;99241.47;10252557;29;20212;-69
2022/04/01 05:04:02;;;;;;;6.10;1.70;;;;;;;3.07;61.76;99234.66;10250112;29;20310;-72
2022/04/01 05:09:15;;;;;;;6.00;1.70;;;;;;;2.98;62.81;99244.88;10252689;29;20227;-71
2022/04/01 05:14:32;;;;;;;7.80;1.90;;;;;;;3.14;64.05;99254.31;10252157;28;20302;-70
2022/04/01 05:19:42;;;;;;;8.90;2.77;;;;;;;2.91;64.57;99253.41;10253242;28;20232;-71
2022/04/01 05:24:52;;;;;;;6.83;1.80;;;;;;;2.69;68.76;99256.75;10249342;28;20224;-71
2022/04/01 05:30:10;;;;;;;5.60;1.97;;;;;;;2.67;69.03;99249.06;10251293;29;20656;-71
2022/04/01 05:35:17;;;;;;;12.73;4.83;;;;;;;2.78;69.04;99251.66;10252370;28;20266;-69
2022/04/01 05:40:22;;;;;;;7.83;3.00;;;;;;;2.60;73.19;99255.03;10253811;28;20188;-70
2022/04/01 05:45:27;;;;;;;8.33;1.87;;;;;;;2.57;73.51;99261.84;10258714;29;20619;-71
2022/04/01 05:50:33;;;;;;;5.50;2.10;;;;;;;2.49;75.05;99254.13;10259513;29;20283;-70
2022/04/01 05:55:39;;;;;;;7.73;2.10;;;;;;;2.38;77.18;99266.03;10261883;28;20839;-70
2022/04/01 06:00:53;;;;;;;7.17;2.30;;;;;;;2.27;78.71;99276.22;10258543;29;20227;-70
2022/04/01 06:06:04;;;;;;;5.10;2.10;;;;;;;2.25;80.34;99275.34;10256967;29;20228;-71
2022/04/01 06:11:14;;;;;;;7.67;3.27;;;;;;;2.24;82.11;99267.66;10255714;29;20180;-71
2022/04/01 06:16:25;;;;;;;8.97;2.37;;;;;;;2.25;84.25;99254.88;10258031;28;20204;-71
2022/04/01 06:21:37;;;;;;;6.40;2.33;;;;;;;2.33;82.04;99258.31;10256490;29;20231;-71
2022/04/01 06:26:43;;;;;;;5.73;2.20;;;;;;;2.39;82.32;99260.06;10258121;29;20216;-71
2022/04/01 06:31:53;;;;;;;5.90;2.10;;;;;;;2.58;80.50;99243.06;10259299;29;20302;-72
2022/04/01 06:37:00;;;;;;;52.03;22.67;;;;;;;2.74;80.18;99249.94;10252108;29;20208;-72
2022/04/01 06:42:07;;;;;;;7.40;2.00;;;;;;;2.84;76.95;99252.53;10256949;28;20189;-71
2022/04/01 06:47:10;;;;;;;4.00;1.60;;;;;;;2.86;75.23;99244.84;10255913;29;20196;-70
2022/04/01 06:52:16;;;;;;;5.17;1.90;;;;;;;2.82;73.56;99250.81;10255715;28;20615;-71
2022/04/01 06:57:19;;;;;;;6.87;2.00;;;;;;;2.93;74.13;99241.47;10256293;29;20296;-70
2022/04/01 07:02:22;;;;;;;5.10;2.13;;;;;;;2.85;71.93;99243.13;10257757;28;20253;-72
2022/04/01 07:07:27;;;;;;;7.50;2.60;;;;;;;2.75;72.45;99249.06;10255658;29;20230;-71
2022/04/01 07:12:32;;;;;;;8.40;1.97;;;;;;;2.73;74.41;99251.63;10255691;28;20224;-70
2022/04/01 07:17:35;;;;;;;9.17;2.10;;;;;;;2.74;76.05;99255.94;10254955;28;20234;-72
2022/04/01 07:22:45;;;;;;;6.37;2.70;;;;;;;2.61;76.99;99248.16;10253543;29;20654;-70
2022/04/01 07:27:49;;;;;;;7.73;2.27;;;;;;;2.78;80.41;99251.66;10254855;29;20569;-70
2022/04/01 07:32:56;;;;;;;7.53;2.30;;;;;;;2.90;82.17;99257.66;10254827;28;20227;-66
2022/04/01 07:38:00;;;;;;;6.90;2.50;;;;;;;2.95;81.85;99248.28;10256870;28;20239;-71
2022/04/01 07:43:04;;;;;;;5.27;1.90;;;;;;;2.77;80.84;99257.63;10249648;29;20234;-71
2022/04/01 07:48:08;;;;;;;4.37;1.77;;;;;;;2.70;84.95;99245.66;10254496;28;20216;-71
2022/04/01 07:53:13;;;;;;;8.37;2.30;;;;;;;2.52;84.08;99259.25;10254343;28;20259;-74
2022/04/01 07:58:18;;;;;;;8.90;2.60;;;;;;;2.52;86.50;99254.13;10254073;28;20234;-70
2022/04/01 08:03:28;;;;;;;7.13;2.23;;;;;;;2.68;88.03;99250.78;10252244;28;20270;-70
2022/04/01 08:08:32;;;;;;;5.63;2.47;;;;;;;2.80;88.43;99257.63;10254470;29;20239;-68
2022/04/01 08:13:36;;;;;;;9.03;2.60;;;;;;;2.93;88.12;99249.13;10256134;28;20212;-70
2022/04/01 08:18:39;;;;;;;8.27;2.33;;;;;;;2.87;87.85;99246.53;10253451;29;20275;-70
2022/04/01 08:23:44;;;;;;;8.60;2.87;;;;;;;3.02;89.67;99244.03;10253075;29;20236;-73
2022/04/01 08:28:47;;;;;;;8.87;2.60;;;;;;;3.00;85.19;99249.13;10252964;28;20227;-72
2022/04/01 08:33:53;;;;;;;6.10;2.63;;;;;;;3.06;87.86;99248.31;10252705;28;20219;-71
2022/04/01 08:38:57;;;;;;;8.37;2.10;;;;;;;2.98;83.97;99247.44;10252616;28;20519;-70
2022/04/01 08:44:03;;;;;;;7.43;2.47;;;;;;;2.99;85.21;99242.31;10256315;29;20234;-71
2022/04/01 08:49:07;;;;;;;9.90;2.33;;;;;;;3.16;86.73;99252.59;10252957;28;20224;-70
2022/04/01 08:54:11;;;;;;;6.73;2.17;;;;;;;3.07;84.40;99250.03;10252326;29;20278;-71
2022/04/01 08:59:15;;;;;;;6.10;2.13;;;;;;;3.06;87.12;99254.28;10252356;28;20224;-71
2022/04/01 09:04:21;;;;;;;8.43;2.33;;;;;;;3.02;89.45;99254.28;10255237;28;20223;-71
2022/04/01 09:09:29;;;;;;;7.47;2.40;;;;;;;2.68;91.10;99257.59;10254093;28;20307;-71
2022/04/01 09:14:33;;;;;;;8.03;2.53;;;;;;;2.57;96.72;99257.59;10258118;28;20235;-70
2022/04/01 09:19:38;;;;;;;6.57;2.23;;;;;;;2.58;96.69;99249.03;10259975;29;20298;-70
2022/04/01 09:24:59;;;;;;;5.97;2.50;;;;;;;2.45;98.59;99249.00;10262825;29;20216;-72
2022/04/01 09:30:02;;;;;;;6.07;2.47;;;;;;;2.48;99.88;99256.66;10260313;29;20216;-71
2022/04/01 09:35:07;;;;;;;6.53;2.83;;;;;;;2.50;100.00;99255.84;10260853;28;20598;-71
2022/04/01 09:40:14;;;;;;;24.03;9.77;;;;;;;2.64;100.00;99245.66;10260002;29;20717;-71
2022/04/01 09:45:19;;;;;;;8.63;2.80;;;;;;;2.67;100.00;99254.19;10258434;29;20672;-70
2022/04/01 09:50:28;;;;;;;6.53;2.30;;;;;;;2.73;100.00;99258.47;10258663;29;20226;-71
2022/04/01 09:55:37;;;;;;;6.83;2.40;;;;;;;2.79;100.00;99240.56;10251829;28;20212;-70
2022/04/01 10:00:41;;;;;;;8.37;2.27;;;;;;;2.79;100.00;99246.56;10258908;29;20662;-69
2022/04/01 10:05:48;;;;;;;6.23;2.40;;;;;;;2.77;100.00;99244.81;10258399;29;20232;-69
2022/04/01 10:10:54;;;;;;;8.03;2.53;;;;;;;2.82;100.00;99236.31;10259087;28;20624;-69
2022/04/01 10:15:58;;;;;;;9.43;3.13;;;;;;;2.69;100.00;99229.44;10254647;29;20209;-71
2022/04/01 10:21:22;;;;;;;8.73;3.10;;;;;;;2.77;100.00;99237.13;10256058;29;20220;-68
2022/04/01 10:26:32;;;;;;;7.77;2.87;;;;;;;2.64;100.00;99236.22;10256637;28;20216;-72
2022/04/01 10:31:35;;;;;;;10.00;2.90;;;;;;;2.53;100.00;99237.94;10257735;29;20690;-70
2022/04/01 10:36:42;;;;;;;8.80;2.97;;;;;;;2.51;100.00;99236.19;10261052;28;20285;-70
2022/04/01 10:42:05;;;;;;;7.23;2.80;;;;;;;2.58;100.00;99227.69;10259111;28;20226;-73
2022/04/01 10:47:09;;;;;;;7.80;3.23;;;;;;;2.62;100.00;99219.16;10246897;28;20238;-69
2022/04/01 10:52:21;;;;;;;7.20;3.50;;;;;;;2.65;100.00;99237.09;10256531;28;20208;-70
2022/04/01 10:57:31;;;;;;;9.47;3.40;;;;;;;2.61;100.00;99232.81;10256531;28;20228;-68
2022/04/01 11:02:35;;;;;;;11.57;5.00;;;;;;;2.72;100.00;99226.88;10254273;28;20293;-70
2022/04/01 11:07:39;;;;;;;9.17;3.80;;;;;;;2.63;100.00;99226.84;10258465;29;20212;-69
2022/04/01 11:12:52;;;;;;;9.53;3.27;;;;;;;2.60;100.00;99238.78;10256099;29;20531;-70
2022/04/01 11:18:11;;;;;;;11.23;3.97;;;;;;;2.59;100.00;99229.41;10254365;29;20230;-70
2022/04/01 11:23:15;;;;;;;10.33;3.03;;;;;;;2.48;100.00;99225.94;10254035;29;20307;-70
2022/04/01 11:28:20;;;;;;;6.73;3.10;;;;;;;2.40;100.00;99228.47;10255768;29;20212;-71
2022/04/01 11:33:24;;;;;;;9.50;4.07;;;;;;;2.44;100.00;99240.44;10258403;29;20208;-70
2022/04/01 11:38:30;;;;;;;10.73;3.73;;;;;;;2.47;100.00;99240.44;10260997;28;20898;-71
2022/04/01 11:43:35;;;;;;;7.33;3.30;;;;;;;2.47;100.00;99229.38;10254985;29;20246;-70
2022/04/01 11:48:41;;;;;;;21.27;9.07;;;;;;;2.50;100.00;99230.25;10257476;28;20254;-70
2022/04/01 11:53:49;;;;;;;9.20;3.73;;;;;;;2.50;100.00;99222.56;10257076;29;20659;-71
2022/04/01 11:58:58;;;;;;;9.90;3.60;;;;;;;2.48;100.00;99236.19;10254323;28;20665;-70
2022/04/01 12:04:04;;;;;;;7.80;3.30;;;;;;;2.46;100.00;99228.50;10256613;29;20693;-67
2022/04/01 12:09:07;;;;;;;11.97;3.10;;;;;;;2.46;100.00;99231.06;10258636;28;20224;-70
2022/04/01 12:14:13;;;;;;;15.70;6.13;;;;;;;2.38;100.00;99237.88;10254744;29;20382;-70
2022/04/01 12:19:20;;;;;;;9.80;3.17;;;;;;;2.30;100.00;99245.50;10257148;28;20228;-71
2022/04/01 12:24:26;;;;;;;14.73;5.93;;;;;;;2.25;100.00;99247.19;10256792;29;20220;-69
2022/04/01 12:29:31;;;;;;;7.97;3.60;;;;;;;2.35;100.00;99231.03;10255585;29;20226;-67
2022/04/01 12:34:45;;;;;;;9.20;4.80;;;;;;;2.44;100.00;99237.88;10258554;28;20274;-68
2022/04/01 12:39:57;;;;;;;8.63;3.70;;;;;;;2.59;100.00;99243.06;10254424;29;20239;-69
2022/04/01 12:45:02;;;;;;;7.97;3.87;;;;;;;2.65;100.00;99232.84;10253071;28;20252;-70
2022/04/01 12:50:06;;;;;;;14.73;4.10;;;;;;;2.65;100.00;99221.72;10254424;28;20215;-71
2022/04/01 12:55:23;;;;;;;10.30;3.70;;;;;;;2.59;100.00;99230.25;10255650;29;20247;-71
2022/04/01 13:00:28;;;;;;;24.27;9.67;;;;;;;2.61;100.00;99222.56;10253945;29;20665;-68
2022/04/01 13:05:32;;;;;;;9.43;3.53;;;;;;;2.60;100.00;99215.75;10257651;28;20322;-70
2022/04/01 13:10:35;;;;;;;11.07;4.00;;;;;;;2.58;100.00;99218.31;10255024;28;20304;-71
2022/04/01 13:15:40;;;;;;;9.30;3.87;;;;;;;2.59;100.00;99222.56;10254891;28;20303;-69
2022/04/01 13:20:44;;;;;;;8.70;3.37;;;;;;;2.45;100.00;99237.03;10254356;29;20702;-70
2022/04/01 13:25:47;;;;;;;10.73;4.87;;;;;;;2.33;100.00;99231.84;10254500;29;20216;-65
2022/04/01 13:30:52;;;;;;;10.73;3.53;;;;;;;2.42;100.00;99231.06;9910708;28;10000269;-70
2022/04/01 13:35:55;;;;;;;15.13;4.03;;;;;;;2.45;100.00;99226.78;10250871;29;20231;-71
2022/04/01 13:40:58;;;;;;;7.63;3.70;;;;;;;2.44;100.00;99219.09;10248859;29;20224;-72
2022/04/01 13:46:03;;;;;;;12.97;4.60;;;;;;;2.46;100.00;99227.63;10250771;29;20260;-70
2022/04/01 13:51:07;;;;;;;10.83;3.80;;;;;;;2.50;100.00;99224.25;10250764;29;20226;-70
2022/04/01 13:56:10;;;;;;;9.17;3.67;;;;;;;2.44;100.00;99217.41;10253268;28;20208;-72
2022/04/01 14:01:15;;;;;;;9.43;3.63;;;;;;;2.42;100.00;99221.66;10257138;28;20546;-69
2022/04/01 14:06:21;;;;;;;11.47;3.47;;;;;;;2.41;100.00;99216.53;10255992;28;20231;-72
2022/04/01 14:11:24;;;;;;;9.00;4.00;;;;;;;2.26;100.00;99220.72;10258113;29;20690;-72
2022/04/01 14:16:29;;;;;;;9.90;3.80;;;;;;;2.18;100.00;99224.09;10258060;29;20220;-67
2022/04/01 14:21:34;;;;;;;9.00;3.30;;;;;;;2.10;100.00;99225.78;10261611;28;20216;-66
2022/04/01 14:26:38;;;;;;;6.87;3.27;;;;;;;1.93;100.00;99225.66;10259993;28;20199;-68
2022/04/01 14:31:57;;;;;;;9.03;4.00;;;;;;;2.00;100.00;99232.53;10260458;28;20204;-67
2022/04/01 14:37:01;;;;;;;8.60;3.37;;;;;;;2.07;100.00;99238.56;10274245;28;20192;-71
2022/04/01 14:42:05;;;;;;;175.47;74.47;;;;;;;2.01;100.00;99244.50;10298282;28;20622;-68
2022/04/01 14:47:09;;;;;;;10.20;3.57;;;;;;;2.20;100.00;99240.34;10263407;28;20217;-69
2022/04/01 14:52:13;;;;;;;8.43;3.70;;;;;;;2.11;100.00;99241.13;10261318;28;20255;-69
2022/04/01 14:57:17;;;;;;;10.37;4.60;;;;;;;2.09;100.00;99249.63;10262791;28;20279;-71
2022/04/01 15:02:22;;;;;;;9.10;3.97;;;;;;;2.12;100.00;99253.06;10260059;29;20550;-72
2022/04/01 15:07:26;;;;;;;7.17;3.73;;;;;;;2.08;100.00;99251.38;10259913;28;20290;-71
2022/04/01 15:12:29;;;;;;;11.37;4.20;;;;;;;1.88;100.00;99242.69;10259413;28;20649;-63
2022/04/01 15:17:36;;;;;;;15.43;4.23;;;;;;;1.85;100.00;99247.81;10259491;28;20210;-71
2022/04/01 15:22:42;;;;;;;11.40;3.77;;;;;;;1.91;100.00;99247.00;10261099;28;20291;-69
2022/04/01 15:27:46;;;;;;;11.67;4.27;;;;;;;1.96;100.00;99263.22;10259562;28;20200;-70
2022/04/01 15:32:51;;;;;;;10.87;4.23;;;;;;;1.99;100.00;99269.22;10259120;28;20196;-70
2022/04/01 15:38:01;;;;;;;14.80;4.33;;;;;;;1.97;100.00;99264.91;10259469;28;20649;-69
2022/04/01 15:43:06;;;;;;;9.80;4.80;;;;;;;1.98;100.00;99275.19;10259563;28;20211;-69
2022/04/01 15:48:11;;;;;;;8.23;4.57;;;;;;;1.88;100.00;99264.88;10260243;28;20517;-65
2022/04/01 15:53:14;;;;;;;11.63;5.37;;;;;;;1.79;100.00;99262.25;10258436;28;20196;-67
2022/04/01 15:58:18;;;;;;;12.70;5.73;;;;;;;1.65;100.00;99272.38;9912710;28;10000546;-67
2022/04/01 16:03:25;;;;;;;12.80;5.77;;;;;;;1.66;100.00;99275.78;10254191;28;20323;-71
2022/04/01 16:08:29;;;;;;;9.97;4.03;;;;;;;1.77;100.00;99272.47;10254712;28;20263;-71
2022/04/01 16:13:34;;;;;;;11.47;4.77;;;;;;;1.83;100.00;99276.78;9916887;28;10000065;-71
2022/04/01 16:18:39;;;;;;;7.63;3.73;;;;;;;1.78;100.00;99286.97;10300008;28;20330;-73
2022/04/01 16:23:42;;;;;;;11.13;4.53;;;;;;;1.80;100.00;99290.41;10294636;28;20306;-69
2022/04/01 16:28:46;;;;;;;13.13;4.50;;;;;;;1.78;100.00;99288.66;10297558;28;20640;-71
2022/04/01 16:33:50;;;;;;;9.67;5.27;;;;;;;1.74;100.00;99290.38;10297582;28;20736;-73
2022/04/01 16:38:54;;;;;;;12.80;5.27;;;;;;;1.65;100.00;99280.06;10297501;28;20237;-70
2022/04/01 16:43:57;;;;;;;9.70;4.80;;;;;;;1.67;100.00;99293.72;10297542;28;20216;-71
2022/04/01 16:49:02;;;;;;;11.10;4.33;;;;;;;1.64;100.00;99295.41;10299500;28;20219;-69
2022/04/01 16:54:07;;;;;;;9.53;4.63;;;;;;;1.55;100.00;99291.06;10296808;28;20202;-71
2022/04/01 16:59:10;;;;;;;9.80;4.93;;;;;;;1.62;100.00;99295.38;10296428;28;20553;-70
2022/04/01 17:04:15;;;;;;;9.97;5.67;;;;;;;1.64;100.00;99298.78;10296583;28;20255;-72
2022/04/01 17:14:39;;;;;;;12.37;6.43;;;;;;;1.65;100.00;99305.63;10296488;28;20251;-69
2022/04/01 17:19:44;;;;;;;11.43;6.30;;;;;;;1.54;100.00;99312.34;10298657;28;20227;-71
2022/04/01 17:24:54;;;;;;;14.63;6.70;;;;;;;1.58;100.00;99314.09;10296490;28;20226;-71
2022/04/01 17:29:57;;;;;;;13.17;7.37;;;;;;;1.64;100.00;99320.97;10296054;28;20203;-69
2022/04/01 17:35:11;;;;;;;14.50;6.47;;;;;;;1.60;100.00;99322.63;10297258;28;20210;-69
2022/04/01 17:40:18;;;;;;;13.73;5.97;;;;;;;1.63;100.00;99322.66;10304779;28;20233;-71
2022/04/01 17:45:25;;;;;;;10.47;5.50;;;;;;;1.44;100.00;99322.47;10304232;28;20196;-69
2022/04/01 17:50:34;;;;;;;11.97;5.83;;;;;;;1.49;100.00;99328.47;10304213;28;20203;-68
2022/04/01 17:55:39;;;;;;;10.03;5.40;;;;;;;1.52;100.00;99321.69;10305997;28;20199;-69
2022/04/01 18:00:44;;;;;;;14.50;6.17;;;;;;;1.53;100.00;99315.75;10303215;28;20233;-68
2022/04/01 18:05:51;;;;;;;10.17;5.57;;;;;;;1.58;100.00;99318.34;10302804;28;20315;-72
2022/04/01 18:10:56;;;;;;;11.30;5.30;;;;;;;1.60;100.00;99320.09;10302625;28;20282;-70
2022/04/01 18:16:01;;;;;;;12.13;6.63;;;;;;;1.55;100.00;99320.88;10303750;28;20277;-70
2022/04/01 18:21:07;;;;;;;13.13;5.67;;;;;;;1.48;100.00;99316.53;10302331;28;20233;-71
2022/04/01 18:26:18;;;;;;;12.40;5.87;;;;;;;1.45;100.00;99316.53;10303832;28;20274;-71
2022/04/01 18:31:32;;;;;;;16.00;7.80;;;;;;;1.45;100.00;99327.59;10301897;28;20207;-71
2022/04/01 18:36:39;;;;;;;12.27;6.50;;;;;;;1.43;100.00;99323.31;10301403;28;20195;-73
2022/04/01 18:41:44;;;;;;;14.17;6.10;;;;;;;1.45;100.00;99326.75;10301348;28;20219;-71
2022/04/01 18:46:48;;;;;;;13.77;6.57;;;;;;;1.36;100.00;99327.53;10301263;28;20199;-70
2022/04/01 18:51:53;;;;;;;9.43;6.27;;;;;;;1.37;100.00;99325.81;10301562;28;20622;-73
2022/04/01 18:57:02;;;;;;;12.33;6.03;;;;;;;1.43;100.00;99321.63;10301966;28;20269;-70
2022/04/01 19:02:07;;;;;;;13.60;6.57;;;;;;;1.36;100.00;99327.53;10301469;28;20230;-69
2022/04/01 19:07:18;;;;;;;12.27;6.50;;;;;;;1.40;100.00;99319.03;10301100;28;20322;-69
2022/04/01 19:12:26;;;;;;;13.33;6.70;;;;;;;1.42;100.00;99317.34;10301046;28;20203;-71
2022/04/01 19:17:33;;;;;;;15.20;7.77;;;;;;;1.39;100.00;99319.88;10300219;28;20196;-71
2022/04/01 19:22:40;;;;;;;12.57;6.60;;;;;;;1.35;100.00;99320.69;10299986;28;20776;-71
2022/04/01 19:27:44;;;;;;;12.50;6.47;;;;;;;1.28;100.00;99321.47;10299932;28;20587;-69
2022/04/01 19:32:48;;;;;;;12.33;5.50;;;;;;;1.32;100.00;99330.88;10301848;28;20211;-71
2022/04/01 19:37:54;;;;;;;14.73;6.13;;;;;;;1.30;100.00;99334.25;10299923;28;20649;-69
2022/04/01 19:42:58;;;;;;;13.83;6.30;;;;;;;1.36;100.00;99327.53;10281772;28;20278;-70
2022/04/01 19:48:01;;;;;;;10.73;6.07;;;;;;;1.32;100.00;99325.78;9916599;28;10000066;-68
2022/04/01 19:53:07;;;;;;;12.43;6.20;;;;;;;1.31;100.00;99329.19;10255413;29;20270;-71
2022/04/01 19:58:12;;;;;;;11.67;6.20;;;;;;;1.25;100.00;99320.56;10255216;28;20177;-70
2022/04/01 20:03:15;;;;;;;12.73;6.50;;;;;;;1.20;100.00;99317.97;10255917;29;20262;-69
2022/04/01 20:08:23;;;;;;;11.23;5.30;;;;;;;1.29;100.00;99318.09;10254984;29;20221;-69
2022/04/01 20:13:28;;;;;;;13.20;6.13;;;;;;;1.26;100.00;99323.13;10255245;29;20197;-68
2022/04/01 20:18:33;;;;;;;14.10;5.50;;;;;;;1.22;100.00;99315.44;10254733;29;20286;-67
2022/04/01 20:23:38;;;;;;;14.73;5.57;;;;;;;1.27;100.00;99306.97;10254476;28;20227;-69
2022/04/01 20:28:41;;;;;;;10.40;5.20;;;;;;;1.35;100.00;99307.91;10256216;28;20196;-69
2022/04/01 20:33:44;;;;;;;14.50;5.13;;;;;;;1.32;100.00;99307.88;10254309;29;20234;-70
2022/04/01 20:38:52;;;;;;;8.67;4.67;;;;;;;1.32;100.00;99309.56;10254593;28;20192;-69
2022/04/01 20:43:55;;;;;;;8.87;4.37;;;;;;;1.31;100.00;99302.75;10254560;29;20295;-68
2022/04/01 20:48:59;;;;;;;10.97;5.03;;;;;;;1.30;100.00;99312.13;10253766;28;20247;-71
2022/04/01 20:54:05;;;;;;;9.57;4.37;;;;;;;1.32;100.00;99309.56;10254216;29;20228;-69
2022/04/01 20:59:08;;;;;;;8.60;4.27;;;;;;;1.31;100.00;99303.63;10255524;29;20666;-70
2022/04/01 21:04:11;;;;;;;9.03;4.90;;;;;;;1.24;100.00;99301.84;10254784;29;20240;-71
2022/04/01 21:09:16;;;;;;;10.63;4.27;;;;;;;1.22;100.00;99300.09;10256826;28;20232;-74
2022/04/01 21:14:20;;;;;;;8.17;4.27;;;;;;;1.19;100.00;99303.50;10262300;29;20756;-70
2022/04/01 21:19:27;;;;;;;9.23;4.13;;;;;;;1.21;100.00;99299.25;10263973;28;20315;-73
2022/04/01 21:24:32;;;;;;;8.50;4.70;;;;;;;1.22;100.00;99297.56;10265093;29;20300;-70
2022/04/01 21:29:35;;;;;;;8.13;4.33;;;;;;;1.15;100.00;99294.09;10265378;28;20240;-70
2022/04/01 21:34:39;;;;;;;10.20;4.90;;;;;;;1.19;100.00;99289.00;10264522;28;20331;-72
2022/04/01 21:39:43;;;;;;;8.70;4.23;;;;;;;1.22;100.00;99293.31;10264644;29;20224;-71
2022/04/01 21:44:47;;;;;;;8.50;4.67;;;;;;;1.13;100.00;99293.22;10264513;28;20228;-70
2022/04/01 21:49:50;;;;;;;10.27;4.67;;;;;;;1.11;100.00;99295.75;10263499;29;20250;-71
2022/04/01 21:54:57;;;;;;;10.37;3.97;;;;;;;1.15;100.00;99287.28;10266161;28;20279;-70
2022/04/01 22:00:00;;;;;;;10.33;4.37;;;;;;;1.15;100.00;99279.63;10262996;28;20410;-72
2022/04/01 22:05:04;;;;;;;13.27;4.93;;;;;;;1.14;100.00;99280.44;10263568;28;20232;-70
2022/04/01 22:10:09;;;;;;;8.07;4.00;;;;;;;1.19;100.00;99278.78;10262790;28;20232;-71
2022/04/01 22:15:12;;;;;;;11.70;4.50;;;;;;;1.13;100.00;99272.78;10260882;29;20231;-74
2022/04/01 22:20:16;;;;;;;8.00;4.57;;;;;;;1.11;100.00;99274.44;10259822;29;20232;-72
2022/04/01 22:25:21;;;;;;;9.60;4.70;;;;;;;1.20;100.00;99274.53;10262524;28;20299;-69
2022/04/01 22:30:24;;;;;;;12.20;4.83;;;;;;;1.13;100.00;99267.66;10259838;29;20645;-70
2022/04/01 22:35:28;;;;;;;8.10;4.20;;;;;;;1.08;100.00;99271.88;10258397;28;20216;-70
2022/04/01 22:40:32;;;;;;;8.70;3.93;;;;;;;1.14;100.00;99265.13;10260850;28;20232;-69
2022/04/01 22:45:37;;;;;;;9.63;4.10;;;;;;;1.12;100.00;99260.84;10259325;28;20682;-66
2022/04/01 22:50:41;;;;;;;8.03;4.00;;;;;;;1.00;100.00;99260.75;9917180;28;9999796;-71
2022/04/01 22:55:46;;;;;;;8.17;4.10;;;;;;;1.09;100.00;99261.66;10258824;29;20231;-72
2022/04/01 23:00:49;;;;;;;10.07;4.63;;;;;;;1.09;100.00;99250.59;10257803;29;20230;-70
2022/04/01 23:05:53;;;;;;;8.30;4.40;;;;;;;1.17;100.00;99254.09;10257831;29;20689;-71
2022/04/01 23:10:59;;;;;;;10.37;5.50;;;;;;;1.20;100.00;99256.66;10257786;28;20278;-69
2022/04/01 23:16:02;;;;;;;11.50;6.70;;;;;;;1.14;100.00;99259.16;10257161;28;20555;-70
2022/04/01 23:21:07;;;;;;;13.80;7.57;;;;;;;1.09;100.00;99256.56;10259016;29;20236;-70
2022/04/01 23:26:11;;;;;;;13.27;7.57;;;;;;;1.23;100.00;99251.56;10256250;28;20666;-70
2022/04/01 23:31:15;;;;;;;15.07;7.30;;;;;;;1.08;100.00;99247.19;10258893;29;20220;-73
2022/04/01 23:36:18;;;;;;;15.37;7.47;;;;;;;1.13;100.00;99253.19;10258826;28;20270;-69
2022/04/01 23:41:24;;;;;;;13.90;6.87;;;;;;;1.13;100.00;99248.09;10259052;29;20294;-72
2022/04/01 23:46:28;;;;;;;12.53;7.00;;;;;;;1.10;100.00;99247.22;10260063;29;20275;-69